createdAt,value
2018-07-02T00:02:20.636Z,43.08
2018-07-02T00:04:49.009Z,42.43
2018-07-02T00:07:19.856Z,42.41
2018-07-02T00:09:48.614Z,42.62
2018-07-02T00:12:18.283Z,42.13
2018-07-02T00:14:47.472Z,42.48
2018-07-02T00:17:16.385Z,43.18
2018-07-02T00:19:44.695Z,42.35
2018-07-02T00:22:13.681Z,43.56
2018-07-02T00:24:42.187Z,42.07
2018-07-02T00:27:10.667Z,42.29
2018-07-02T00:29:39.064Z,43.04
2018-07-02T00:32:07.601Z,42.70
2018-07-02T00:34:36.238Z,42.94
2018-07-02T00:37:04.625Z,42.12
2018-07-02T00:39:33.053Z,42.79
2018-07-02T00:42:01.429Z,44.55
2018-07-02T00:44:29.845Z,43.27
2018-07-02T00:46:58.237Z,41.94
2018-07-02T00:49:26.630Z,44.94
2018-07-02T00:51:55.060Z,42.03
2018-07-02T00:54:23.431Z,43.12
2018-07-02T00:56:51.906Z,42.59
2018-07-02T00:59:20.323Z,42.13
2018-07-02T01:01:48.664Z,43.26
2018-07-02T01:04:24.773Z,42.11
2018-07-02T01:06:53.474Z,42.71
2018-07-02T01:09:21.852Z,43.60
2018-07-02T01:11:50.387Z,42.71
2018-07-02T01:14:18.857Z,42.22
2018-07-02T01:16:47.542Z,42.46
2018-07-02T01:19:15.987Z,44.62
2018-07-02T01:21:44.342Z,43.62
2018-07-02T01:24:12.739Z,44.48
2018-07-02T01:26:41.122Z,43.68
2018-07-02T01:29:09.478Z,43.28
2018-07-02T01:31:37.956Z,43.78
2018-07-02T01:34:06.339Z,42.79
2018-07-02T01:36:34.757Z,46.71
2018-07-02T01:39:03.264Z,44.15
2018-07-02T01:41:31.601Z,44.00
2018-07-02T01:43:59.959Z,42.69
2018-07-02T01:46:28.369Z,43.05
2018-07-02T01:48:56.709Z,43.66
2018-07-02T01:51:25.037Z,42.95
2018-07-02T01:53:53.452Z,43.88
2018-07-02T01:56:21.956Z,42.25
2018-07-02T01:58:50.474Z,43.00
2018-07-02T02:01:18.825Z,43.05
2018-07-02T02:03:47.176Z,42.95
2018-07-02T02:06:15.501Z,42.73
2018-07-02T02:08:43.849Z,42.83
2018-07-02T02:11:12.321Z,44.15
2018-07-02T02:13:40.646Z,44.63
2018-07-02T02:16:09.030Z,45.69
2018-07-02T02:18:37.532Z,44.40
2018-07-02T02:21:06.119Z,43.25
2018-07-02T02:23:34.516Z,44.26
2018-07-02T02:26:02.854Z,45.75
2018-07-02T02:28:31.268Z,44.37
2018-07-02T02:30:59.819Z,43.94
2018-07-02T02:33:28.375Z,44.02
2018-07-02T02:35:56.928Z,46.04
2018-07-02T02:38:25.438Z,45.12
2018-07-02T02:40:53.915Z,47.02
2018-07-02T02:43:22.204Z,47.81
2018-07-02T02:45:50.522Z,46.05
2018-07-02T02:48:18.889Z,45.13
2018-07-02T02:50:47.355Z,44.75
2018-07-02T02:53:15.917Z,45.70
2018-07-02T02:55:44.277Z,46.68
2018-07-02T02:58:12.559Z,46.55
2018-07-02T03:00:40.939Z,45.69
2018-07-02T03:03:09.287Z,46.39
2018-07-02T03:05:38.091Z,45.64
2018-07-02T03:08:06.438Z,45.80
2018-07-02T03:10:34.868Z,45.70
2018-07-02T03:13:03.215Z,45.62
2018-07-02T03:15:31.577Z,45.52
2018-07-02T03:17:59.890Z,46.59
2018-07-02T03:20:29.119Z,46.08
2018-07-02T03:22:58.288Z,45.63
2018-07-02T03:25:26.712Z,45.56
2018-07-02T03:27:55.877Z,46.32
2018-07-02T03:30:24.248Z,45.10
2018-07-02T03:32:52.577Z,44.23
2018-07-02T03:35:21.109Z,45.39
2018-07-02T03:37:49.511Z,45.48
2018-07-02T03:40:17.958Z,45.69
2018-07-02T03:42:46.350Z,47.15
2018-07-02T03:45:14.702Z,46.70
2018-07-02T03:47:43.046Z,46.46
2018-07-02T03:50:11.399Z,45.10
2018-07-02T03:52:39.756Z,44.40
2018-07-02T03:55:08.102Z,45.58
2018-07-02T03:57:36.742Z,45.69
2018-07-02T04:00:05.106Z,45.21
2018-07-02T04:02:33.474Z,44.26
2018-07-02T04:05:01.831Z,43.62
2018-07-02T04:07:30.313Z,46.62
2018-07-02T04:09:58.995Z,45.50
2018-07-02T04:12:27.372Z,44.61
2018-07-02T04:14:55.720Z,46.54
2018-07-02T04:17:24.148Z,44.94
2018-07-02T04:19:53.074Z,54.08
2018-07-02T04:22:21.493Z,52.02
2018-07-02T04:24:49.930Z,50.23
2018-07-02T04:27:18.345Z,48.37
2018-07-02T04:29:46.874Z,48.03
2018-07-02T04:32:15.257Z,45.55
2018-07-02T04:34:43.544Z,45.02
2018-07-02T04:37:11.896Z,44.30
2018-07-02T04:39:40.234Z,43.26
2018-07-02T04:42:08.549Z,44.34
2018-07-02T04:44:36.906Z,44.59
2018-07-02T04:47:05.661Z,44.55
2018-07-02T04:49:33.961Z,42.62
2018-07-02T04:52:02.263Z,43.99
2018-07-02T04:54:30.722Z,44.30
2018-07-02T04:56:59.244Z,43.71
2018-07-02T04:59:27.686Z,42.56
2018-07-02T05:01:56.252Z,43.51
2018-07-02T05:04:24.640Z,44.13
2018-07-02T05:06:53.208Z,43.11
2018-07-02T05:09:21.643Z,42.20
2018-07-02T05:11:50.029Z,43.72
2018-07-02T05:14:52.010Z,42.73
2018-07-02T05:17:21.797Z,42.16
2018-07-02T05:19:50.230Z,40.77
2018-07-02T05:22:18.641Z,40.04
2018-07-02T05:24:47.042Z,41.03
2018-07-02T05:27:15.464Z,39.25
2018-07-02T05:29:43.972Z,39.71
2018-07-02T05:32:12.479Z,39.90
2018-07-02T05:34:40.810Z,39.46
2018-07-02T05:37:09.101Z,39.02
2018-07-02T05:39:37.610Z,38.07
2018-07-02T05:42:05.989Z,39.00
2018-07-02T05:44:34.287Z,38.13
2018-07-02T05:47:02.849Z,37.74
2018-07-02T05:49:31.267Z,39.00
2018-07-02T05:51:59.585Z,35.64
2018-07-02T05:54:27.878Z,35.58
2018-07-02T05:56:56.176Z,35.32
2018-07-02T05:59:24.514Z,36.47
2018-07-02T06:01:52.865Z,38.11
2018-07-02T06:04:21.363Z,35.68
2018-07-02T06:06:49.755Z,36.94
2018-07-02T06:09:18.136Z,35.61
2018-07-02T06:11:46.558Z,37.34
2018-07-02T06:14:14.954Z,35.60
2018-07-02T06:16:43.367Z,35.97
2018-07-02T06:19:17.604Z,34.95
2018-07-02T06:21:46.439Z,35.94
2018-07-02T06:24:14.909Z,35.37
2018-07-02T06:26:43.295Z,34.37
2018-07-02T06:29:11.838Z,31.55
2018-07-02T06:31:40.181Z,31.02
2018-07-02T06:34:08.705Z,31.75
2018-07-02T06:36:37.217Z,32.49
2018-07-02T06:39:08.461Z,33.47
2018-07-02T06:41:36.805Z,34.65
2018-07-02T06:44:05.272Z,32.59
2018-07-02T06:46:33.814Z,33.32
2018-07-02T06:49:02.535Z,32.67
2018-07-02T06:51:30.875Z,32.99
2018-07-02T06:53:59.153Z,32.92
2018-07-02T06:56:28.283Z,32.68
2018-07-02T06:58:56.639Z,32.33
2018-07-02T07:01:26.274Z,32.55
2018-07-02T07:03:54.616Z,31.53
2018-07-02T07:06:23.231Z,31.24
2018-07-02T07:08:51.636Z,32.02
2018-07-02T07:11:19.993Z,31.97
2018-07-02T07:13:48.562Z,31.54
2018-07-02T07:16:17.159Z,30.43
2018-07-02T07:18:45.578Z,29.92
2018-07-02T07:21:14.022Z,30.63
2018-07-02T07:23:42.337Z,30.31
2018-07-02T07:26:10.702Z,32.20
2018-07-02T07:28:39.049Z,31.98
2018-07-02T07:31:07.482Z,30.23
2018-07-02T07:33:35.982Z,29.41
2018-07-02T07:36:04.336Z,30.42
2018-07-02T07:38:33.069Z,28.93
2018-07-02T07:41:01.513Z,30.09
2018-07-02T07:43:29.807Z,29.33
2018-07-02T07:45:58.223Z,33.59
2018-07-02T07:48:26.524Z,29.67
2018-07-02T07:50:54.887Z,29.50
2018-07-02T07:53:23.426Z,28.80
2018-07-02T07:55:52.022Z,29.15
2018-07-02T07:58:20.493Z,30.02
2018-07-02T08:00:48.827Z,29.81
2018-07-02T08:03:17.196Z,28.55
2018-07-02T08:05:46.310Z,30.06
2018-07-02T08:08:14.695Z,29.51
2018-07-02T08:10:43.065Z,28.19
2018-07-02T08:13:11.418Z,28.99
2018-07-02T08:15:39.820Z,28.15
2018-07-02T08:18:08.259Z,27.02
2018-07-02T08:20:36.594Z,27.82
2018-07-02T08:23:04.972Z,27.72
2018-07-02T08:25:33.412Z,27.15
2018-07-02T08:28:01.852Z,26.83
2018-07-02T08:30:30.306Z,26.71
2018-07-02T08:32:58.661Z,26.14
2018-07-02T08:35:27.065Z,26.10
2018-07-02T08:37:55.713Z,27.07
2018-07-02T08:40:24.138Z,26.84
2018-07-02T08:42:52.434Z,26.67
2018-07-02T08:45:20.964Z,26.65
2018-07-02T08:47:50.169Z,27.33
2018-07-02T08:50:18.686Z,26.50
2018-07-02T08:52:47.040Z,26.85
2018-07-02T08:55:15.500Z,25.99
2018-07-02T08:57:44.113Z,25.68
2018-07-02T09:00:12.415Z,26.89
2018-07-02T09:02:40.874Z,26.36
2018-07-02T09:05:09.381Z,24.89
2018-07-02T09:07:37.656Z,24.87
2018-07-02T09:10:06.633Z,26.07
2018-07-02T09:12:35.951Z,25.56
2018-07-02T09:15:05.101Z,24.88
2018-07-02T09:17:34.150Z,24.53
2018-07-02T09:20:02.398Z,25.30
2018-07-02T09:22:30.765Z,25.66
2018-07-02T09:24:59.058Z,24.89
2018-07-02T09:27:27.433Z,25.24
2018-07-02T09:29:55.908Z,25.73
2018-07-02T09:32:24.284Z,24.46
2018-07-02T09:34:52.696Z,24.12
2018-07-02T09:37:21.330Z,24.32
2018-07-02T09:39:49.703Z,23.59
2018-07-02T09:42:18.078Z,25.41
2018-07-02T09:44:46.484Z,23.98
2018-07-02T09:47:14.805Z,25.37
2018-07-02T09:49:43.420Z,24.44
2018-07-02T09:52:11.904Z,25.37
2018-07-02T09:54:40.215Z,24.63
2018-07-02T09:57:08.514Z,25.66
2018-07-02T09:59:36.815Z,24.04
2018-07-02T10:02:05.198Z,24.60
2018-07-02T10:04:34.000Z,24.70
2018-07-02T10:07:02.426Z,22.34
2018-07-02T10:09:30.807Z,21.66
2018-07-02T10:11:59.184Z,23.15
2018-07-02T10:14:27.750Z,23.95
2018-07-02T10:16:56.166Z,23.69
2018-07-02T10:19:24.473Z,24.16
2018-07-02T10:21:52.845Z,21.04
2018-07-02T10:24:21.172Z,22.58
2018-07-02T10:26:49.542Z,23.18
2018-07-02T10:29:17.849Z,22.21
2018-07-02T10:31:46.194Z,21.45
2018-07-02T10:34:14.552Z,23.22
2018-07-02T10:36:42.878Z,23.72
2018-07-02T10:39:11.208Z,22.45
2018-07-02T10:41:39.849Z,21.87
2018-07-02T10:44:08.349Z,21.13
2018-07-02T10:46:36.698Z,21.60
2018-07-02T10:49:05.116Z,22.33
2018-07-02T10:51:33.430Z,22.61
2018-07-02T10:54:02.060Z,20.01
2018-07-02T10:56:30.376Z,20.71
2018-07-02T10:58:59.091Z,20.31
2018-07-02T11:01:27.499Z,20.33
2018-07-02T11:03:55.889Z,19.74
2018-07-02T11:06:24.241Z,19.61
2018-07-02T11:08:52.562Z,20.64
2018-07-02T11:11:20.905Z,22.83
2018-07-02T11:13:49.212Z,20.57
2018-07-02T11:16:17.461Z,20.31
2018-07-02T11:18:45.910Z,20.17
2018-07-02T11:21:14.241Z,17.77
2018-07-02T11:23:42.748Z,19.43
2018-07-02T11:26:11.090Z,20.53
2018-07-02T11:28:39.587Z,19.57
2018-07-02T11:31:07.904Z,19.53
2018-07-02T11:33:36.346Z,19.04
2018-07-02T11:36:04.780Z,20.02
2018-07-02T11:38:33.070Z,19.47
2018-07-02T11:41:01.384Z,18.52
2018-07-02T11:43:29.693Z,19.52
2018-07-02T11:45:58.836Z,19.32
2018-07-02T11:48:27.217Z,19.49
2018-07-02T11:50:55.524Z,18.78
2018-07-02T11:53:23.945Z,18.28
2018-07-02T11:55:52.244Z,18.14
2018-07-02T11:58:20.838Z,18.37
2018-07-02T12:00:49.233Z,17.95
2018-07-02T12:03:17.563Z,18.00
2018-07-02T12:05:45.890Z,15.26
2018-07-02T12:08:14.216Z,14.30
2018-07-02T12:10:42.629Z,13.46
2018-07-02T12:13:11.528Z,11.69
2018-07-02T12:15:39.903Z,12.27
2018-07-02T12:18:08.293Z,10.80
2018-07-02T12:20:36.661Z,9.51
2018-07-02T12:23:05.029Z,8.19
2018-07-02T12:25:33.354Z,9.49
2018-07-02T12:28:01.714Z,8.19
2018-07-02T12:30:30.094Z,8.69
2018-07-02T12:32:58.571Z,7.00
2018-07-02T12:35:26.879Z,6.60
2018-07-02T12:37:55.593Z,6.10
2018-07-02T12:40:23.858Z,6.30
2018-07-02T12:42:52.151Z,6.57
2018-07-02T12:45:22.533Z,6.30
2018-07-02T12:47:51.599Z,6.03
2018-07-02T12:50:19.886Z,5.40
2018-07-02T12:52:48.271Z,4.72
2018-07-02T12:55:16.594Z,5.38
2018-07-02T12:57:44.837Z,5.47
2018-07-02T13:00:13.128Z,4.41
2018-07-02T13:02:41.477Z,4.47
2018-07-02T13:05:09.798Z,4.89
2018-07-02T13:07:38.195Z,3.99
2018-07-02T13:10:07.275Z,4.39
2018-07-02T13:12:36.807Z,4.72
2018-07-02T13:15:05.680Z,5.17
2018-07-02T13:17:34.023Z,4.72
2018-07-02T13:20:02.402Z,4.28
2018-07-02T13:22:30.781Z,4.61
2018-07-02T13:24:59.048Z,4.27
2018-07-02T13:27:27.337Z,4.73
2018-07-02T13:29:55.795Z,3.74
2018-07-02T13:32:24.253Z,4.49
2018-07-02T13:34:53.024Z,4.16
2018-07-02T13:37:21.277Z,3.40
2018-07-02T13:39:49.736Z,3.59
2018-07-02T13:42:18.071Z,3.35
2018-07-02T13:44:46.356Z,4.13
2018-07-02T13:47:14.689Z,3.67
2018-07-02T13:49:43.002Z,3.26
2018-07-02T13:52:11.497Z,3.03
2018-07-02T13:54:39.874Z,3.08
2018-07-02T13:57:08.293Z,3.16
2018-07-02T13:59:36.621Z,3.03
2018-07-02T14:02:04.986Z,2.98
2018-07-02T14:04:33.323Z,2.94
2018-07-02T14:07:01.648Z,2.98
2018-07-02T14:09:30.209Z,2.47
2018-07-02T14:11:58.482Z,2.62
2018-07-02T14:14:27.825Z,3.08
2018-07-02T14:16:56.146Z,3.28
2018-07-02T14:19:24.459Z,2.70
2018-07-02T14:21:53.033Z,3.75
2018-07-02T14:24:21.396Z,2.81
2018-07-02T14:26:49.724Z,3.51
2018-07-02T14:29:18.069Z,2.61
2018-07-02T14:31:46.647Z,2.38
2018-07-02T14:34:15.066Z,4.39
2018-07-02T14:36:43.521Z,2.89
2018-07-02T14:39:13.183Z,3.72
2018-07-02T14:41:41.694Z,2.55
2018-07-02T14:44:10.119Z,3.13
2018-07-02T14:46:38.516Z,2.66
2018-07-02T14:49:07.038Z,2.10
2018-07-02T14:51:35.330Z,1.86
2018-07-02T14:54:03.677Z,2.02
2018-07-02T14:56:32.193Z,2.43
2018-07-02T14:59:00.537Z,2.32
2018-07-02T15:01:28.909Z,2.38
2018-07-02T15:03:57.451Z,1.96
2018-07-02T15:06:25.740Z,2.18
2018-07-02T15:08:54.136Z,2.29
2018-07-02T15:11:22.483Z,1.63
2018-07-02T15:13:50.837Z,2.23
2018-07-02T15:16:19.333Z,2.05
2018-07-02T15:18:47.620Z,2.86
2018-07-02T15:21:15.937Z,2.70
2018-07-02T15:23:44.255Z,1.75
2018-07-02T15:26:12.719Z,2.14
2018-07-02T15:28:41.043Z,2.00
2018-07-02T15:31:09.399Z,1.87
2018-07-02T15:33:37.795Z,2.29
2018-07-02T15:36:07.193Z,2.30
2018-07-02T15:38:35.548Z,2.15
2018-07-02T15:41:04.003Z,1.81
2018-07-02T15:43:32.526Z,1.37
2018-07-02T15:46:01.002Z,1.58
2018-07-02T15:48:29.344Z,1.78
2018-07-02T15:50:57.680Z,1.61
2018-07-02T15:53:25.984Z,1.07
2018-07-02T15:55:54.353Z,1.62
2018-07-02T15:58:22.713Z,2.29
2018-07-02T16:00:51.240Z,2.64
2018-07-02T16:03:19.455Z,2.54
2018-07-02T16:05:47.998Z,2.61
2018-07-02T16:08:16.384Z,2.14
2018-07-02T16:10:44.806Z,1.47
2018-07-02T16:13:13.138Z,2.44
2018-07-02T16:15:41.564Z,1.59
2018-07-02T16:18:10.071Z,1.95
2018-07-02T16:20:38.372Z,2.51
2018-07-02T16:23:06.958Z,1.87
2018-07-02T16:25:35.300Z,2.34
2018-07-02T16:28:03.620Z,2.31
2018-07-02T16:30:32.104Z,2.66
2018-07-02T16:33:00.542Z,2.52
2018-07-02T16:35:28.851Z,2.40
2018-07-02T16:37:57.159Z,2.41
2018-07-02T16:40:25.553Z,2.23
2018-07-02T16:42:53.838Z,2.68
2018-07-02T16:45:22.164Z,2.59
2018-07-02T16:47:50.598Z,2.92
2018-07-02T16:50:18.969Z,3.00
2018-07-02T16:52:47.277Z,2.67
2018-07-02T16:55:15.689Z,2.91
2018-07-02T16:57:44.022Z,4.15
2018-07-02T17:00:12.411Z,3.54
2018-07-02T17:02:40.745Z,3.42
2018-07-02T17:05:09.260Z,2.51
2018-07-02T17:07:37.656Z,3.36
2018-07-02T17:10:06.297Z,3.91
2018-07-02T17:12:35.222Z,3.85
2018-07-02T17:15:03.542Z,4.17
2018-07-02T17:17:31.924Z,4.06
2018-07-02T17:20:00.488Z,4.20
2018-07-02T17:22:29.102Z,3.91
2018-07-02T17:24:57.414Z,4.51
2018-07-02T17:27:25.985Z,4.29
2018-07-02T17:29:54.402Z,4.38
2018-07-02T17:32:23.074Z,4.40
2018-07-02T17:34:51.529Z,4.66
2018-07-02T17:37:20.001Z,4.79
2018-07-02T17:39:48.311Z,4.74
2018-07-02T17:42:16.641Z,5.66
2018-07-02T17:44:44.999Z,5.92
2018-07-02T17:47:13.314Z,5.39
2018-07-02T17:49:41.894Z,6.23
2018-07-02T17:52:10.533Z,6.35
2018-07-02T17:54:38.841Z,6.69
2018-07-02T17:57:07.276Z,6.81
2018-07-02T17:59:35.741Z,6.70
2018-07-02T18:02:04.336Z,6.25
2018-07-02T18:04:32.642Z,7.19
2018-07-02T18:07:01.067Z,7.25
2018-07-02T18:09:29.560Z,7.75
2018-07-02T18:11:57.922Z,9.39
2018-07-02T18:14:26.470Z,11.00
2018-07-02T18:16:55.012Z,10.89
2018-07-02T18:19:23.560Z,12.05
2018-07-02T18:21:52.382Z,13.32
2018-07-02T18:24:21.814Z,14.77
2018-07-02T18:26:50.226Z,16.50
2018-07-02T18:29:18.750Z,16.34
2018-07-02T18:31:47.310Z,18.96
2018-07-02T18:34:16.724Z,18.54
2018-07-02T18:36:45.070Z,19.07
2018-07-02T18:39:14.589Z,19.43
2018-07-02T18:41:43.205Z,22.15
2018-07-02T18:44:11.526Z,22.02
2018-07-02T18:46:39.957Z,21.65
2018-07-02T18:49:08.357Z,23.56
2018-07-02T18:51:36.744Z,23.35
2018-07-02T18:54:05.236Z,21.69
2018-07-02T18:56:33.543Z,24.05
2018-07-02T18:59:02.140Z,24.24
2018-07-02T19:01:30.566Z,24.35
2018-07-02T19:03:58.888Z,23.94
2018-07-02T19:06:27.815Z,25.87
2018-07-02T19:08:58.270Z,25.12
2018-07-02T19:11:26.616Z,25.11
2018-07-02T19:13:54.947Z,25.58
2018-07-02T19:16:23.461Z,25.94
2018-07-02T19:18:53.060Z,25.62
2018-07-02T19:21:22.828Z,26.56
2018-07-02T19:23:51.363Z,25.61
2018-07-02T19:26:22.733Z,28.08
2018-07-02T19:28:52.409Z,27.61
2018-07-02T19:31:20.921Z,25.18
2018-07-02T19:33:49.378Z,26.35
2018-07-02T19:36:17.819Z,28.49
2018-07-02T19:38:46.261Z,28.64
2018-07-02T19:41:15.664Z,29.09
2018-07-02T19:43:44.730Z,29.54
2018-07-02T19:46:14.949Z,28.11
2018-07-02T19:48:44.929Z,29.66
2018-07-02T19:51:13.355Z,30.61
2018-07-02T19:53:41.961Z,30.19
2018-07-02T19:56:11.230Z,29.39
2018-07-02T19:58:41.790Z,30.96
2018-07-02T20:01:10.207Z,29.54
2018-07-02T20:03:38.727Z,29.94
2018-07-02T20:06:07.260Z,30.25
2018-07-02T20:08:35.543Z,31.28
2018-07-02T20:11:03.838Z,31.78
2018-07-02T20:13:32.355Z,29.33
2018-07-02T20:16:00.615Z,26.79
2018-07-02T20:18:29.511Z,27.17
2018-07-02T20:20:57.984Z,27.49
2018-07-02T20:23:26.316Z,27.44
2018-07-02T20:25:55.790Z,27.10
2018-07-02T20:28:24.250Z,27.96
2018-07-02T20:30:52.569Z,27.68
2018-07-02T20:33:20.978Z,27.96
2018-07-02T20:35:49.540Z,28.51
2018-07-02T20:38:17.917Z,28.47
2018-07-02T20:40:48.393Z,28.11
2018-07-02T20:43:17.663Z,31.05
2018-07-02T20:46:48.882Z,34.69
2018-07-02T20:49:17.464Z,34.54
2018-07-02T20:51:47.089Z,35.04
2018-07-02T20:54:21.610Z,28.19
2018-07-02T20:56:50.658Z,26.79
2018-07-02T20:59:20.860Z,28.55
2018-07-02T21:01:49.963Z,28.94
2018-07-02T21:04:19.665Z,29.63
2018-07-02T21:06:48.071Z,30.25
2018-07-02T21:09:30.712Z,30.30
2018-07-02T21:11:59.178Z,31.52
2018-07-02T21:14:27.587Z,31.18
2018-07-02T21:16:56.059Z,30.94
2018-07-02T21:19:24.767Z,32.64
2018-07-02T21:21:56.088Z,32.16
2018-07-02T21:24:24.564Z,31.33
2018-07-02T21:26:53.125Z,32.03
2018-07-02T21:29:21.503Z,31.75
2018-07-02T21:31:51.928Z,35.14
2018-07-02T21:34:22.021Z,33.79
2018-07-02T21:36:51.103Z,31.32
2018-07-02T21:39:20.773Z,32.46
2018-07-02T21:41:49.158Z,33.32
2018-07-02T21:44:17.470Z,32.98
2018-07-02T21:46:45.773Z,33.04
2018-07-02T21:49:14.199Z,33.49
2018-07-02T21:51:43.577Z,33.40
2018-07-02T21:54:12.717Z,33.05
2018-07-02T21:56:41.085Z,33.75
2018-07-02T21:59:10.228Z,33.58
2018-07-02T22:01:39.536Z,33.80
2018-07-02T22:04:07.952Z,34.05
2018-07-02T22:06:36.924Z,34.97
2018-07-02T22:09:08.743Z,34.26
2018-07-02T22:11:37.112Z,33.75
2018-07-02T22:14:05.775Z,34.66
2018-07-02T22:16:36.961Z,34.33
2018-07-02T22:19:06.638Z,34.95
2018-07-02T22:21:35.709Z,34.84
2018-07-02T22:24:07.021Z,35.28
2018-07-02T22:26:37.413Z,34.96
2018-07-02T22:29:06.365Z,34.94
2018-07-02T22:31:34.672Z,36.18
2018-07-02T22:34:03.189Z,35.98
2018-07-02T22:36:31.535Z,35.84
2018-07-02T22:38:59.948Z,36.49
2018-07-02T22:41:28.904Z,38.01
2018-07-02T22:43:57.648Z,37.48
2018-07-02T22:46:26.217Z,37.07
2018-07-02T22:48:54.548Z,37.69
2018-07-02T22:51:23.146Z,38.04
2018-07-02T22:53:51.505Z,36.41
2018-07-02T22:56:19.959Z,36.17
2018-07-02T22:58:48.243Z,36.39
2018-07-02T23:01:16.961Z,36.74
2018-07-02T23:03:45.278Z,36.33
2018-07-02T23:06:13.797Z,37.16
2018-07-02T23:08:42.276Z,37.30
2018-07-02T23:11:10.566Z,36.65
2018-07-02T23:13:38.867Z,36.71
2018-07-02T23:16:07.555Z,36.74
2018-07-02T23:18:35.925Z,36.58
2018-07-02T23:21:04.209Z,36.99
2018-07-02T23:23:32.551Z,37.06
2018-07-02T23:26:00.979Z,38.61
2018-07-02T23:28:29.289Z,37.73
2018-07-02T23:30:57.604Z,37.03
2018-07-02T23:33:25.966Z,36.85
2018-07-02T23:35:54.243Z,37.83
2018-07-02T23:38:22.657Z,37.67
2018-07-02T23:40:50.945Z,37.48
2018-07-02T23:43:19.442Z,37.57
2018-07-02T23:45:47.765Z,38.98
2018-07-02T23:48:16.147Z,38.54
2018-07-02T23:50:44.585Z,38.23
2018-07-02T23:53:13.075Z,38.95
2018-07-02T23:55:41.439Z,38.43
2018-07-02T23:58:09.909Z,39.25
